createdAt,value
2019-04-30T00:00:38.321Z,64.73
2019-04-30T00:03:15.956Z,64.12
2019-04-30T00:05:49.270Z,63.98
2019-04-30T00:08:16.327Z,64.12
2019-04-30T00:10:45.414Z,64.17
2019-04-30T00:13:17.527Z,64.46
2019-04-30T00:15:45.286Z,64.85
2019-04-30T00:18:18.402Z,64.84
2019-04-30T00:20:49.257Z,64.02
2019-04-30T00:23:22.397Z,63.56
2019-04-30T00:25:48.413Z,63.31
2019-04-30T00:28:17.098Z,63.10
2019-04-30T00:30:48.343Z,62.90
2019-04-30T00:33:22.156Z,62.90
2019-04-30T00:35:49.745Z,62.82
2019-04-30T00:38:17.851Z,62.91
2019-04-30T00:40:46.614Z,62.95
2019-04-30T00:43:15.610Z,63.01
2019-04-30T00:45:47.380Z,63.16
2019-04-30T00:48:19.329Z,63.12
2019-04-30T00:50:45.987Z,63.14
2019-04-30T00:53:16.500Z,63.18
2019-04-30T00:55:48.387Z,63.25
2019-04-30T00:58:17.507Z,63.16
2019-04-30T01:00:50.036Z,62.96
2019-04-30T01:03:20.086Z,63.46
2019-04-30T01:05:49.794Z,63.75
2019-04-30T01:08:21.070Z,63.36
2019-04-30T01:10:48.903Z,63.10
2019-04-30T01:13:19.203Z,63.03
2019-04-30T01:15:52.251Z,63.53
2019-04-30T01:18:19.338Z,63.88
2019-04-30T01:20:48.765Z,64.06
2019-04-30T01:23:22.093Z,64.58
2019-04-30T01:25:51.472Z,64.44
2019-04-30T01:28:24.132Z,63.60
2019-04-30T01:30:57.949Z,63.36
2019-04-30T01:33:28.469Z,63.48
2019-04-30T01:35:59.542Z,63.98
2019-04-30T01:38:28.677Z,63.62
2019-04-30T01:40:59.622Z,63.40
2019-04-30T01:43:33.526Z,63.74
2019-04-30T01:46:01.803Z,64.20
2019-04-30T01:48:29.926Z,64.78
2019-04-30T01:51:01.071Z,64.13
2019-04-30T01:53:29.173Z,63.42
2019-04-30T01:56:19.184Z,63.13
2019-04-30T01:58:55.671Z,63.13
2019-04-30T02:01:31.115Z,63.05
2019-04-30T02:03:59.511Z,63.08
2019-04-30T02:06:30.483Z,63.30
2019-04-30T02:09:00.956Z,63.45
2019-04-30T02:11:30.419Z,63.60
2019-04-30T02:13:59.246Z,63.62
2019-04-30T02:16:28.957Z,63.52
2019-04-30T02:18:59.653Z,63.59
2019-04-30T02:21:30.056Z,63.55
2019-04-30T02:24:00.072Z,63.56
2019-04-30T02:26:28.775Z,63.77
2019-04-30T02:28:59.317Z,63.75
2019-04-30T02:31:30.776Z,63.73
2019-04-30T02:34:05.898Z,63.72
2019-04-30T02:36:45.390Z,63.49
2019-04-30T02:39:14.051Z,63.36
2019-04-30T02:41:45.570Z,63.36
2019-04-30T02:44:15.521Z,63.41
2019-04-30T02:46:46.133Z,63.41
2019-04-30T02:49:20.166Z,63.37
2019-04-30T02:51:49.978Z,63.31
2019-04-30T02:54:24.706Z,63.54
2019-04-30T02:56:54.405Z,63.41
2019-04-30T02:59:23.078Z,64.38
2019-04-30T03:01:51.839Z,63.56
2019-04-30T03:04:20.510Z,64.19
2019-04-30T03:06:50.224Z,64.11
2019-04-30T03:09:20.127Z,64.76
2019-04-30T03:11:50.115Z,64.48
2019-04-30T03:14:20.055Z,64.16
2019-04-30T03:16:53.568Z,63.97
2019-04-30T03:19:23.889Z,63.83
2019-04-30T03:21:54.235Z,63.73
2019-04-30T03:24:24.412Z,63.62
2019-04-30T03:26:53.214Z,63.62
2019-04-30T03:29:24.046Z,63.63
2019-04-30T03:31:52.899Z,63.57
2019-04-30T03:34:25.633Z,63.55
2019-04-30T03:36:52.141Z,63.59
2019-04-30T03:39:20.807Z,63.66
2019-04-30T03:41:50.198Z,63.81
2019-04-30T03:44:25.593Z,64.45
2019-04-30T03:46:51.225Z,64.92
2019-04-30T03:49:20.390Z,65.47
2019-04-30T03:51:49.842Z,65.19
2019-04-30T03:54:19.510Z,64.77
2019-04-30T03:56:50.243Z,64.47
2019-04-30T03:59:20.665Z,64.19
2019-04-30T04:01:51.047Z,64.31
2019-04-30T04:04:21.340Z,65.07
2019-04-30T04:06:51.653Z,65.68
2019-04-30T04:09:22.474Z,65.21
2019-04-30T04:11:59.847Z,64.79
2019-04-30T04:14:29.628Z,64.43
2019-04-30T04:17:00.065Z,64.21
2019-04-30T04:19:29.224Z,64.29
2019-04-30T04:22:00.450Z,64.13
2019-04-30T04:24:33.559Z,64.13
2019-04-30T04:27:02.391Z,64.10
2019-04-30T04:29:32.522Z,64.48
2019-04-30T04:32:01.188Z,64.75
2019-04-30T04:34:30.351Z,65.46
2019-04-30T04:37:00.156Z,65.66
2019-04-30T04:39:29.747Z,65.94
2019-04-30T04:42:00.020Z,66.02
2019-04-30T04:44:29.474Z,65.71
2019-04-30T04:47:00.168Z,65.50
2019-04-30T04:49:30.556Z,65.47
2019-04-30T04:51:59.497Z,65.35
2019-04-30T04:54:30.045Z,65.53
2019-04-30T04:57:14.015Z,65.90
2019-04-30T04:59:30.889Z,66.44
2019-04-30T05:02:01.203Z,66.66
2019-04-30T05:04:29.974Z,67.22
2019-04-30T05:07:00.063Z,67.42
2019-04-30T05:09:29.013Z,67.61
2019-04-30T05:11:58.649Z,68.05
2019-04-30T05:14:28.820Z,68.26
2019-04-30T05:16:58.931Z,68.66
2019-04-30T05:19:28.604Z,68.89
2019-04-30T05:21:59.602Z,68.83
2019-04-30T05:24:29.480Z,69.16
2019-04-30T05:26:58.673Z,69.64
2019-04-30T05:29:28.961Z,70.40
2019-04-30T05:31:58.564Z,70.93
2019-04-30T05:34:28.829Z,71.16
2019-04-30T05:37:01.002Z,71.53
2019-04-30T05:39:29.806Z,72.08
2019-04-30T05:42:01.498Z,71.87
2019-04-30T05:44:30.215Z,71.90
2019-04-30T05:46:59.317Z,72.04
2019-04-30T05:49:28.767Z,72.24
2019-04-30T05:51:59.326Z,72.14
2019-04-30T05:54:29.222Z,72.13
2019-04-30T05:56:59.403Z,72.43
2019-04-30T05:59:31.082Z,72.51
2019-04-30T06:01:59.799Z,72.58
2019-04-30T06:04:29.393Z,72.41
2019-04-30T06:06:58.715Z,72.00
2019-04-30T06:09:48.532Z,72.02
2019-04-30T06:12:28.429Z,71.78
2019-04-30T06:15:11.747Z,71.65
2019-04-30T06:18:00.067Z,71.66
2019-04-30T06:20:21.048Z,71.48
2019-04-30T06:22:52.285Z,71.39
2019-04-30T06:25:31.115Z,71.04
2019-04-30T06:27:52.470Z,70.68
2019-04-30T06:30:21.265Z,70.32
2019-04-30T06:32:50.017Z,70.16
2019-04-30T06:35:19.458Z,69.83
2019-04-30T06:37:48.895Z,69.34
2019-04-30T06:40:19.626Z,68.90
2019-04-30T06:42:50.302Z,68.23
2019-04-30T06:45:19.310Z,67.63
2019-04-30T06:47:49.109Z,67.44
2019-04-30T06:50:19.370Z,67.13
2019-04-30T06:52:56.270Z,66.43
2019-04-30T07:25:39.136Z,45.62
2019-04-30T07:28:08.972Z,43.25
2019-04-30T07:30:39.563Z,40.81
2019-04-30T07:33:09.507Z,38.98
2019-04-30T07:35:39.907Z,38.25
2019-04-30T07:38:09.294Z,36.75
2019-04-30T07:40:39.020Z,37.17
2019-04-30T07:43:09.968Z,35.54
2019-04-30T07:45:39.749Z,34.54
2019-04-30T07:48:09.529Z,34.38
2019-04-30T07:50:41.041Z,32.90
2019-04-30T07:53:11.283Z,32.60
2019-04-30T07:55:41.247Z,32.36
2019-04-30T07:58:09.992Z,30.72
2019-04-30T08:00:40.228Z,31.52
2019-04-30T08:03:11.204Z,30.59
2019-04-30T08:05:44.933Z,29.90
2019-04-30T08:08:20.978Z,28.92
2019-04-30T08:10:44.100Z,27.18
2019-04-30T08:13:15.199Z,27.10
2019-04-30T08:15:43.280Z,27.45
2019-04-30T08:18:13.034Z,27.76
2019-04-30T08:20:41.696Z,27.15
2019-04-30T08:23:20.300Z,27.25
2019-04-30T08:25:40.946Z,27.21
2019-04-30T08:28:09.701Z,26.08
2019-04-30T08:30:39.124Z,25.38
2019-04-30T08:33:09.473Z,24.69
2019-04-30T08:35:39.776Z,24.89
2019-04-30T08:38:10.727Z,24.61
2019-04-30T08:40:52.814Z,23.87
2019-04-30T08:43:10.041Z,23.74
2019-04-30T08:45:38.725Z,23.82
2019-04-30T08:48:09.115Z,23.92
2019-04-30T08:50:39.291Z,23.25
2019-04-30T08:53:11.459Z,22.65
2019-04-30T08:55:40.520Z,22.50
2019-04-30T08:58:14.797Z,22.68
2019-04-30T09:00:40.047Z,23.04
2019-04-30T09:03:09.341Z,23.21
2019-04-30T09:05:41.289Z,21.97
2019-04-30T09:08:11.645Z,21.36
2019-04-30T09:10:41.803Z,21.33
2019-04-30T09:13:10.477Z,21.26
2019-04-30T09:15:40.092Z,21.62
2019-04-30T09:18:12.429Z,22.36
2019-04-30T09:20:40.895Z,22.14
2019-04-30T09:23:11.246Z,20.78
2019-04-30T09:25:40.036Z,20.01
2019-04-30T09:28:10.801Z,19.54
2019-04-30T09:30:39.464Z,19.79
2019-04-30T09:33:10.923Z,19.52
2019-04-30T09:35:39.510Z,19.17
2019-04-30T09:38:09.205Z,18.97
2019-04-30T09:40:41.635Z,19.58
2019-04-30T09:43:09.961Z,18.57
2019-04-30T09:45:38.705Z,17.87
2019-04-30T09:48:09.427Z,18.53
2019-04-30T09:50:39.105Z,18.89
2019-04-30T09:53:09.901Z,18.36
2019-04-30T09:55:40.447Z,18.07
2019-04-30T09:58:17.211Z,17.85
2019-04-30T10:00:39.579Z,18.42
2019-04-30T10:03:10.388Z,18.37
2019-04-30T10:05:39.139Z,17.53
2019-04-30T10:08:07.934Z,17.52
2019-04-30T10:10:38.837Z,18.14
2019-04-30T10:13:10.006Z,18.39
2019-04-30T10:15:40.330Z,18.36
2019-04-30T10:18:09.909Z,18.73
2019-04-30T10:20:47.053Z,19.04
2019-04-30T10:23:15.759Z,17.77
2019-04-30T10:25:44.420Z,18.48
2019-04-30T10:28:13.100Z,19.28
2019-04-30T10:30:41.866Z,18.25
2019-04-30T10:33:10.580Z,19.80
2019-04-30T10:35:39.352Z,18.68
2019-04-30T10:38:09.830Z,18.22
2019-04-30T10:40:39.115Z,19.77
2019-04-30T10:43:08.915Z,19.65
2019-04-30T10:45:39.019Z,20.14
2019-04-30T10:48:07.736Z,20.60
2019-04-30T10:50:40.963Z,21.40
2019-04-30T10:53:12.254Z,21.53
2019-04-30T10:55:40.335Z,21.49
2019-04-30T10:58:09.009Z,22.01
2019-04-30T11:00:39.889Z,22.04
2019-04-30T11:03:19.090Z,22.57
2019-04-30T11:05:41.362Z,23.02
2019-04-30T11:08:11.559Z,23.08
2019-04-30T11:10:40.282Z,22.95
2019-04-30T11:13:08.957Z,24.03
2019-04-30T11:15:39.275Z,24.08
2019-04-30T11:18:08.632Z,23.80
2019-04-30T11:20:39.524Z,23.54
2019-04-30T11:23:14.177Z,23.97
2019-04-30T11:25:40.655Z,22.56
2019-04-30T11:28:09.264Z,23.35
2019-04-30T11:30:39.238Z,23.39
2019-04-30T11:33:12.875Z,24.60
2019-04-30T11:35:41.953Z,24.53
2019-04-30T11:38:10.602Z,25.12
2019-04-30T11:40:39.918Z,25.19
2019-04-30T11:43:10.309Z,24.87
2019-04-30T11:45:53.919Z,24.69
2019-04-30T11:48:22.580Z,24.62
2019-04-30T11:50:54.225Z,25.72
2019-04-30T11:53:27.879Z,25.32
2019-04-30T11:55:53.420Z,25.17
2019-04-30T11:58:22.133Z,23.93
2019-04-30T12:00:50.903Z,24.29
2019-04-30T12:03:25.489Z,23.04
2019-04-30T12:05:58.915Z,23.15
2019-04-30T12:08:29.453Z,23.70
2019-04-30T12:11:09.761Z,23.38
2019-04-30T12:13:38.445Z,22.81
2019-04-30T12:16:08.719Z,22.07
2019-04-30T12:18:38.841Z,22.39
2019-04-30T12:21:07.595Z,21.45
2019-04-30T12:23:36.252Z,21.20
2019-04-30T12:26:04.965Z,20.76
2019-04-30T12:28:33.645Z,21.42
2019-04-30T12:31:02.335Z,20.79
2019-04-30T12:33:30.999Z,20.37
2019-04-30T12:35:59.737Z,19.92
2019-04-30T12:38:29.880Z,20.39
2019-04-30T12:40:58.782Z,20.76
2019-04-30T12:43:27.477Z,20.37
2019-04-30T12:46:03.482Z,21.41
2019-04-30T12:48:31.192Z,21.33
2019-04-30T12:51:17.855Z,21.80
2019-04-30T12:53:48.195Z,21.78
2019-04-30T12:56:27.143Z,22.21
2019-04-30T12:58:56.684Z,20.75
2019-04-30T13:01:25.422Z,21.58
2019-04-30T13:03:58.674Z,21.63
2019-04-30T13:06:25.132Z,22.37
2019-04-30T13:08:54.537Z,22.15
2019-04-30T13:11:24.208Z,23.33
2019-04-30T13:13:56.767Z,23.96
2019-04-30T13:16:26.512Z,24.16
2019-04-30T13:18:55.265Z,23.89
2019-04-30T13:21:25.981Z,25.07
2019-04-30T13:23:54.640Z,24.87
2019-04-30T13:26:23.314Z,25.06
2019-04-30T13:29:05.545Z,24.21
2019-04-30T13:31:34.293Z,24.40
2019-04-30T13:34:23.070Z,24.90
2019-04-30T13:36:51.861Z,25.41
2019-04-30T13:39:27.007Z,24.48
2019-04-30T13:42:01.655Z,25.90
2019-04-30T13:44:41.525Z,25.32
2019-04-30T13:47:10.977Z,27.28
2019-04-30T13:49:39.740Z,28.83
2019-04-30T13:52:10.281Z,31.01
2019-04-30T13:54:38.991Z,31.72
2019-04-30T13:57:09.105Z,32.62
2019-04-30T13:59:38.060Z,32.98
2019-04-30T14:02:08.690Z,32.85
2019-04-30T14:04:47.851Z,33.04
2019-04-30T14:07:27.545Z,33.68
2019-04-30T14:09:56.243Z,33.78
2019-04-30T14:12:25.305Z,33.79
2019-04-30T14:14:55.656Z,34.30
2019-04-30T14:17:24.520Z,34.05
2019-04-30T14:19:53.788Z,34.20
2019-04-30T14:22:22.480Z,34.92
2019-04-30T14:24:52.602Z,34.42
2019-04-30T14:27:21.473Z,34.53
2019-04-30T14:29:52.637Z,35.00
2019-04-30T14:32:21.418Z,34.91
2019-04-30T14:34:50.705Z,34.96
2019-04-30T14:37:20.145Z,35.25
2019-04-30T14:39:49.444Z,35.22
2019-04-30T14:42:20.881Z,35.65
2019-04-30T14:44:52.087Z,35.77
2019-04-30T14:47:26.376Z,36.33
2019-04-30T14:50:02.644Z,37.14
2019-04-30T14:52:30.845Z,37.19
2019-04-30T14:55:18.745Z,37.23
2019-04-30T15:00:59.239Z,37.49
2019-04-30T15:03:31.778Z,38.41
2019-04-30T15:06:00.456Z,38.39
2019-04-30T15:08:29.384Z,37.81
2019-04-30T15:10:58.100Z,37.58
2019-04-30T15:13:29.372Z,38.32
2019-04-30T15:16:03.632Z,38.52
2019-04-30T15:18:29.014Z,38.85
2019-04-30T15:20:59.458Z,39.02
2019-04-30T15:23:37.340Z,39.39
2019-04-30T15:26:21.612Z,39.82
2019-04-30T15:28:41.481Z,39.87
2019-04-30T15:31:10.241Z,40.26
2019-04-30T15:33:40.786Z,40.76
2019-04-30T15:36:11.133Z,40.96
2019-04-30T15:38:59.082Z,41.37
2019-04-30T15:41:28.936Z,41.91
2019-04-30T15:43:57.630Z,41.92
2019-04-30T15:46:26.522Z,42.28
2019-04-30T15:48:55.195Z,42.64
2019-04-30T15:51:23.880Z,42.88
2019-04-30T15:53:52.633Z,43.53
2019-04-30T15:56:34.125Z,43.71
2019-04-30T15:59:12.169Z,43.52
2019-04-30T16:01:46.371Z,43.43
2019-04-30T16:04:18.502Z,43.66
2019-04-30T16:06:49.120Z,43.92
2019-04-30T16:09:25.603Z,44.32
2019-04-30T16:12:00.606Z,44.35
2019-04-30T16:14:33.931Z,43.69
2019-04-30T16:17:06.562Z,44.09
2019-04-30T16:19:35.506Z,43.91
2019-04-30T16:22:04.792Z,44.39
2019-04-30T16:24:33.550Z,44.11
2019-04-30T16:27:02.247Z,43.94
2019-04-30T16:29:30.989Z,44.16
2019-04-30T16:31:59.691Z,44.15
2019-04-30T16:34:30.404Z,44.00
2019-04-30T16:36:59.328Z,44.32
2019-04-30T16:39:28.784Z,44.75
2019-04-30T16:41:59.138Z,44.51
2019-04-30T16:44:31.011Z,44.31
2019-04-30T16:47:12.702Z,44.80
2019-04-30T16:49:30.823Z,44.73
2019-04-30T16:52:01.494Z,44.88
2019-04-30T16:54:30.500Z,45.09
2019-04-30T16:57:04.154Z,45.51
2019-04-30T16:59:42.707Z,45.87
2019-04-30T17:02:12.954Z,46.00
2019-04-30T17:04:49.980Z,46.17
2019-04-30T17:07:32.166Z,46.61
2019-04-30T17:10:18.988Z,46.75
2019-04-30T17:13:01.299Z,47.24
2019-04-30T17:15:34.597Z,47.38
2019-04-30T17:18:03.347Z,47.63
2019-04-30T17:20:32.120Z,47.94
2019-04-30T17:23:00.891Z,47.78
2019-04-30T17:25:30.866Z,48.18
2019-04-30T17:28:01.501Z,48.44
2019-04-30T17:30:30.416Z,48.52
2019-04-30T17:32:59.737Z,48.24
2019-04-30T17:35:28.964Z,48.43
2019-04-30T17:37:57.642Z,48.64
2019-04-30T17:40:29.155Z,49.01
2019-04-30T17:42:57.927Z,49.01
2019-04-30T17:45:26.650Z,49.03
2019-04-30T17:47:55.931Z,49.25
2019-04-30T17:50:24.624Z,49.17
2019-04-30T17:52:53.428Z,49.40
2019-04-30T17:55:22.220Z,49.39
2019-04-30T17:57:50.905Z,49.39
2019-04-30T18:00:22.324Z,49.58
2019-04-30T18:02:50.313Z,49.79
2019-04-30T18:05:19.611Z,49.75
2019-04-30T18:07:49.805Z,50.17
2019-04-30T18:10:20.468Z,50.40
2019-04-30T18:12:49.154Z,50.72
2019-04-30T18:15:19.520Z,51.17
2019-04-30T18:17:49.857Z,51.36
2019-04-30T18:20:26.209Z,51.53
2019-04-30T18:22:56.526Z,51.81
2019-04-30T18:25:36.128Z,52.12
2019-04-30T18:28:05.356Z,52.46
2019-04-30T18:30:39.131Z,52.68
2019-04-30T18:33:09.867Z,52.74
2019-04-30T18:35:38.882Z,52.71
2019-04-30T18:38:11.368Z,52.93
2019-04-30T18:40:42.053Z,53.08
2019-04-30T18:43:12.854Z,53.23
2019-04-30T18:45:43.088Z,53.52
2019-04-30T18:48:12.137Z,53.69
2019-04-30T18:50:40.836Z,53.88
2019-04-30T18:53:11.634Z,53.89
2019-04-30T18:55:40.332Z,54.16
2019-04-30T18:58:10.440Z,54.36
2019-04-30T19:00:40.804Z,54.59
2019-04-30T19:03:10.057Z,54.63
2019-04-30T19:05:40.302Z,54.96
2019-04-30T19:08:25.708Z,55.25
2019-04-30T19:10:56.042Z,55.32
2019-04-30T19:13:38.291Z,55.89
2019-04-30T19:16:24.716Z,56.15
2019-04-30T19:18:56.276Z,56.46
2019-04-30T19:21:25.480Z,56.70
2019-04-30T19:23:54.483Z,57.14
2019-04-30T19:26:23.242Z,57.49
2019-04-30T19:28:53.492Z,57.55
2019-04-30T19:31:24.302Z,57.32
2019-04-30T19:33:54.366Z,57.38
2019-04-30T19:36:34.983Z,57.72
2019-04-30T19:38:53.571Z,58.11
2019-04-30T19:41:28.674Z,58.05
2019-04-30T19:43:57.480Z,58.37
2019-04-30T19:46:26.273Z,58.42
2019-04-30T19:48:55.049Z,58.64
2019-04-30T19:51:23.755Z,58.85
2019-04-30T19:53:52.977Z,59.34
2019-04-30T19:56:21.938Z,59.41
2019-04-30T19:59:02.062Z,59.45
2019-04-30T20:01:23.221Z,59.42
2019-04-30T20:03:51.998Z,59.52
2019-04-30T20:06:22.157Z,59.59
2019-04-30T20:08:50.947Z,59.59
2019-04-30T20:11:19.695Z,59.66
2019-04-30T20:13:49.023Z,59.72
2019-04-30T20:16:19.738Z,60.14
2019-04-30T20:18:51.244Z,60.09
2019-04-30T20:21:28.339Z,60.62
2019-04-30T20:23:52.071Z,60.50
2019-04-30T20:26:20.777Z,60.52
2019-04-30T20:28:50.565Z,60.77
2019-04-30T20:31:19.315Z,60.84
2019-04-30T20:33:48.966Z,60.60
2019-04-30T20:36:19.036Z,60.43
2019-04-30T20:38:55.429Z,60.51
2019-04-30T20:41:25.748Z,60.62
2019-04-30T20:43:54.857Z,60.85
2019-04-30T20:46:34.244Z,61.14
2019-04-30T20:48:55.479Z,61.12
2019-04-30T20:51:24.158Z,61.31
2019-04-30T20:53:52.867Z,61.24
2019-04-30T20:56:22.648Z,61.41
2019-04-30T20:58:57.882Z,61.46
2019-04-30T21:01:24.845Z,61.58
2019-04-30T21:03:53.615Z,61.65
2019-04-30T21:06:22.317Z,61.61
2019-04-30T21:08:51.093Z,61.58
2019-04-30T21:11:19.823Z,61.73
2019-04-30T21:13:49.103Z,61.84
2019-04-30T21:16:17.968Z,62.05
2019-04-30T21:18:46.655Z,62.04
2019-04-30T21:21:15.347Z,61.94
2019-04-30T21:23:44.028Z,62.05
2019-04-30T21:26:15.429Z,61.78
2019-04-30T21:28:44.119Z,61.77
2019-04-30T21:31:30.717Z,61.68
2019-04-30T21:34:19.481Z,61.69
2019-04-30T21:36:59.786Z,62.22
2019-04-30T21:39:28.505Z,62.10
2019-04-30T21:41:59.339Z,62.21
2019-04-30T21:44:27.684Z,62.17
2019-04-30T21:46:56.959Z,62.11
2019-04-30T21:49:25.708Z,62.26
2019-04-30T21:51:55.122Z,62.27
2019-04-30T21:54:23.896Z,62.43
2019-04-30T21:56:52.594Z,62.47
2019-04-30T21:59:24.633Z,62.57
2019-04-30T22:01:53.619Z,62.96
2019-04-30T22:04:23.846Z,62.99
2019-04-30T22:06:52.684Z,63.00
2019-04-30T22:09:21.735Z,63.32
2019-04-30T22:11:50.394Z,63.67
2019-04-30T22:14:19.218Z,64.04
2019-04-30T22:16:49.435Z,63.96
2019-04-30T22:19:18.266Z,63.97
2019-04-30T22:21:47.015Z,64.04
2019-04-30T22:24:20.007Z,64.28
2019-04-30T22:26:48.734Z,64.12
2019-04-30T22:29:19.122Z,64.13
2019-04-30T22:31:49.473Z,64.06
2019-04-30T22:34:18.324Z,64.11
2019-04-30T22:36:48.815Z,64.08
2019-04-30T22:39:19.947Z,64.30
2019-04-30T22:41:48.916Z,64.42
2019-04-30T22:44:17.822Z,64.41
2019-04-30T22:46:46.507Z,64.52
2019-04-30T22:49:16.645Z,64.47
2019-04-30T22:51:45.415Z,64.64
2019-04-30T22:54:14.078Z,64.65
2019-04-30T22:56:42.879Z,64.90
2019-04-30T22:59:11.556Z,64.85
2019-04-30T23:01:58.082Z,64.96
2019-04-30T23:04:30.600Z,64.95
2019-04-30T23:06:59.257Z,64.93
2019-04-30T23:09:27.973Z,65.16
2019-04-30T23:11:56.724Z,65.28
2019-04-30T23:14:25.438Z,65.24
2019-04-30T23:16:55.534Z,65.20
2019-04-30T23:19:24.329Z,64.99
2019-04-30T23:21:53.275Z,64.96
2019-04-30T23:24:21.981Z,65.12
2019-04-30T23:26:50.674Z,64.97
2019-04-30T23:29:19.450Z,64.92
2019-04-30T23:31:48.122Z,64.87
2019-04-30T23:34:18.018Z,64.88
2019-04-30T23:36:47.223Z,64.72
2019-04-30T23:39:15.997Z,64.58
2019-04-30T23:41:44.706Z,64.51
2019-04-30T23:44:13.478Z,64.57
2019-04-30T23:46:43.279Z,64.68
2019-04-30T23:49:11.915Z,64.58
2019-04-30T23:51:42.172Z,64.52
2019-04-30T23:54:10.855Z,64.30
2019-04-30T23:56:42.451Z,64.32
2019-04-30T23:59:11.225Z,64.51
